sensor_id;sensor_type;location;lat;lon;timestamp;pressure;altitude;pressure_sealevel;temperature;humidity
44359;BME280;30077;52.474;13.326;2023-02-02T00:02:27;100144.88;;;3.64;100.00
44359;BME280;30077;52.474;13.326;2023-02-02T00:07:27;100154.13;;;3.80;100.00
44359;BME280;30077;52.474;13.326;2023-02-02T00:12:27;100139.94;;;3.84;100.00
44359;BME280;30077;52.474;13.326;2023-02-02T00:17:27;100145.06;;;3.91;100.00
44359;BME280;30077;52.474;13.326;2023-02-02T00:22:27;100161.53;;;4.00;100.00
44359;BME280;30077;52.474;13.326;2023-02-02T00:27:28;100145.56;;;4.05;100.00
44359;BME280;30077;52.474;13.326;2023-02-02T00:32:28;100137.56;;;4.08;100.00
44359;BME280;30077;52.474;13.326;2023-02-02T00:37:28;100142.50;;;4.20;100.00
44359;BME280;30077;52.474;13.326;2023-02-02T00:42:28;100140.72;;;4.22;100.00
44359;BME280;30077;52.474;13.326;2023-02-02T00:47:28;100144.22;;;4.23;100.00
44359;BME280;30077;52.474;13.326;2023-02-02T00:52:28;100114.38;;;4.19;100.00
44359;BME280;30077;52.474;13.326;2023-02-02T00:57:29;100116.19;;;4.17;100.00
44359;BME280;30077;52.474;13.326;2023-02-02T01:02:29;100124.09;;;4.19;100.00
44359;BME280;30077;52.474;13.326;2023-02-02T01:07:29;100143.63;;;4.12;100.00
44359;BME280;30077;52.474;13.326;2023-02-02T01:12:29;100143.94;;;4.01;100.00
44359;BME280;30077;52.474;13.326;2023-02-02T01:17:30;100158.91;;;3.99;100.00
44359;BME280;30077;52.474;13.326;2023-02-02T01:22:31;100143.41;;;3.86;100.00
44359;BME280;30077;52.474;13.326;2023-02-02T01:27:33;100150.69;;;3.78;100.00
44359;BME280;30077;52.474;13.326;2023-02-02T01:32:33;100146.28;;;3.77;100.00
44359;BME280;30077;52.474;13.326;2023-02-02T01:37:35;100143.81;;;3.71;100.00
44359;BME280;30077;52.474;13.326;2023-02-02T01:42:35;100168.44;;;3.70;100.00
44359;BME280;30077;52.474;13.326;2023-02-02T01:47:38;100138.63;;;3.68;100.00
44359;BME280;30077;52.474;13.326;2023-02-02T01:52:41;100158.81;;;3.69;100.00
44359;BME280;30077;52.474;13.326;2023-02-02T02:02:44;100155.44;;;3.64;100.00
44359;BME280;30077;52.474;13.326;2023-02-02T02:07:45;100177.41;;;3.63;100.00
44359;BME280;30077;52.474;13.326;2023-02-02T02:12:47;100166.88;;;3.63;100.00
44359;BME280;30077;52.474;13.326;2023-02-02T02:17:54;100173.06;;;3.62;100.00
44359;BME280;30077;52.474;13.326;2023-02-02T02:28:41;100173.50;;;3.79;100.00
44359;BME280;30077;52.474;13.326;2023-02-02T02:38:57;100180.22;;;3.93;100.00
44359;BME280;30077;52.474;13.326;2023-02-02T02:44:00;100195.81;;;4.02;100.00
44359;BME280;30077;52.474;13.326;2023-02-02T02:49:01;100213.34;;;4.03;100.00
44359;BME280;30077;52.474;13.326;2023-02-02T02:54:01;100201.06;;;4.02;100.00
44359;BME280;30077;52.474;13.326;2023-02-02T02:59:09;100213.28;;;4.06;100.00
44359;BME280;30077;52.474;13.326;2023-02-02T03:04:26;100210.63;;;4.07;100.00
44359;BME280;30077;52.474;13.326;2023-02-02T03:09:30;100213.13;;;4.12;100.00
44359;BME280;30077;52.474;13.326;2023-02-02T03:14:36;100220.91;;;4.18;100.00
44359;BME280;30077;52.474;13.326;2023-02-02T03:19:36;100249.78;;;4.24;100.00
44359;BME280;30077;52.474;13.326;2023-02-02T03:24:36;100267.44;;;4.22;100.00
44359;BME280;30077;52.474;13.326;2023-02-02T03:29:37;100274.44;;;4.25;100.00
44359;BME280;30077;52.474;13.326;2023-02-02T03:34:37;100280.56;;;4.25;100.00
44359;BME280;30077;52.474;13.326;2023-02-02T03:39:37;100282.34;;;4.25;100.00
44359;BME280;30077;52.474;13.326;2023-02-02T03:44:37;100297.22;;;4.27;100.00
44359;BME280;30077;52.474;13.326;2023-02-02T03:49:39;100314.97;;;4.22;100.00
44359;BME280;30077;52.474;13.326;2023-02-02T03:54:39;100315.69;;;4.29;100.00
44359;BME280;30077;52.474;13.326;2023-02-02T03:59:39;100321.75;;;4.32;100.00
44359;BME280;30077;52.474;13.326;2023-02-02T04:04:39;100322.91;;;4.21;100.00
44359;BME280;30077;52.474;13.326;2023-02-02T04:09:39;100338.81;;;4.19;100.00
44359;BME280;30077;52.474;13.326;2023-02-02T04:14:39;100356.38;;;4.20;100.00
44359;BME280;30077;52.474;13.326;2023-02-02T04:19:40;100358.13;;;4.21;100.00
44359;BME280;30077;52.474;13.326;2023-02-02T04:24:40;100359.78;;;4.25;100.00
44359;BME280;30077;52.474;13.326;2023-02-02T04:29:40;100376.50;;;4.24;100.00
44359;BME280;30077;52.474;13.326;2023-02-02T04:34:41;100381.66;;;4.30;100.00
44359;BME280;30077;52.474;13.326;2023-02-02T04:39:41;100393.88;;;4.34;100.00
44359;BME280;30077;52.474;13.326;2023-02-02T04:44:42;100408.13;;;4.27;100.00
44359;BME280;30077;52.474;13.326;2023-02-02T04:49:44;100423.78;;;4.37;100.00
44359;BME280;30077;52.474;13.326;2023-02-02T04:54:44;100413.34;;;4.30;100.00
44359;BME280;30077;52.474;13.326;2023-02-02T04:59:45;100439.81;;;4.27;100.00
44359;BME280;30077;52.474;13.326;2023-02-02T05:04:45;100437.47;;;4.15;100.00
44359;BME280;30077;52.474;13.326;2023-02-02T05:09:45;100441.84;;;4.16;100.00
44359;BME280;30077;52.474;13.326;2023-02-02T05:14:45;100455.88;;;4.18;100.00
44359;BME280;30077;52.474;13.326;2023-02-02T05:19:45;100461.09;;;4.21;100.00
44359;BME280;30077;52.474;13.326;2023-02-02T05:24:48;100472.53;;;4.22;100.00
44359;BME280;30077;52.474;13.326;2023-02-02T05:29:49;100486.59;;;4.22;100.00
44359;BME280;30077;52.474;13.326;2023-02-02T05:34:49;100490.03;;;4.26;100.00
44359;BME280;30077;52.474;13.326;2023-02-02T05:39:52;100507.63;;;4.27;100.00
44359;BME280;30077;52.474;13.326;2023-02-02T05:44:53;100506.81;;;4.23;100.00
44359;BME280;30077;52.474;13.326;2023-02-02T05:49:53;100512.84;;;4.28;100.00
44359;BME280;30077;52.474;13.326;2023-02-02T05:54:53;100515.44;;;4.31;100.00
44359;BME280;30077;52.474;13.326;2023-02-02T05:59:53;100521.72;;;4.26;100.00
44359;BME280;30077;52.474;13.326;2023-02-02T06:04:53;100539.19;;;4.31;100.00
44359;BME280;30077;52.474;13.326;2023-02-02T06:09:54;100550.72;;;4.27;100.00
44359;BME280;30077;52.474;13.326;2023-02-02T06:14:54;100563.03;;;4.28;100.00
44359;BME280;30077;52.474;13.326;2023-02-02T06:19:54;100556.00;;;4.27;100.00
44359;BME280;30077;52.474;13.326;2023-02-02T06:24:56;100578.97;;;4.25;100.00
44359;BME280;30077;52.474;13.326;2023-02-02T06:29:56;100581.50;;;4.28;100.00
44359;BME280;30077;52.474;13.326;2023-02-02T06:34:57;100584.09;;;4.31;100.00
44359;BME280;30077;52.474;13.326;2023-02-02T06:39:57;100600.09;;;4.25;100.00
44359;BME280;30077;52.474;13.326;2023-02-02T06:44:59;100601.88;;;4.25;100.00
44359;BME280;30077;52.474;13.326;2023-02-02T06:49:59;100616.94;;;4.18;100.00
44359;BME280;30077;52.474;13.326;2023-02-02T06:54:59;100624.03;;;4.16;100.00
44359;BME280;30077;52.474;13.326;2023-02-02T07:00:01;100637.22;;;4.16;100.00
44359;BME280;30077;52.474;13.326;2023-02-02T07:05:01;100653.00;;;4.19;100.00
44359;BME280;30077;52.474;13.326;2023-02-02T07:10:01;100646.78;;;4.23;100.00
44359;BME280;30077;52.474;13.326;2023-02-02T07:15:02;100658.19;;;4.25;100.00
44359;BME280;30077;52.474;13.326;2023-02-02T07:20:02;100669.56;;;4.29;100.00
44359;BME280;30077;52.474;13.326;2023-02-02T07:25:02;100687.16;;;4.28;100.00
44359;BME280;30077;52.474;13.326;2023-02-02T07:30:03;100689.94;;;4.22;100.00
44359;BME280;30077;52.474;13.326;2023-02-02T07:35:03;100701.50;;;4.14;100.00
44359;BME280;30077;52.474;13.326;2023-02-02T07:40:03;100713.84;;;4.13;100.00
44359;BME280;30077;52.474;13.326;2023-02-02T07:45:04;100706.75;;;4.17;100.00
44359;BME280;30077;52.474;13.326;2023-02-02T07:50:05;100712.44;;;4.42;100.00
44359;BME280;30077;52.474;13.326;2023-02-02T07:55:05;100718.00;;;4.71;100.00
44359;BME280;30077;52.474;13.326;2023-02-02T08:00:06;100725.22;;;4.63;100.00
44359;BME280;30077;52.474;13.326;2023-02-02T08:05:06;100738.75;;;4.48;100.00
44359;BME280;30077;52.474;13.326;2023-02-02T08:10:07;100740.78;;;4.33;100.00
44359;BME280;30077;52.474;13.326;2023-02-02T08:15:07;100753.03;;;4.38;100.00
44359;BME280;30077;52.474;13.326;2023-02-02T08:20:09;100759.31;;;4.30;100.00
44359;BME280;30077;52.474;13.326;2023-02-02T08:25:11;100761.94;;;4.30;100.00
44359;BME280;30077;52.474;13.326;2023-02-02T08:30:12;100768.88;;;4.38;100.00
44359;BME280;30077;52.474;13.326;2023-02-02T08:35:12;100778.31;;;4.51;100.00
44359;BME280;30077;52.474;13.326;2023-02-02T08:40:13;100780.81;;;4.57;100.00
44359;BME280;30077;52.474;13.326;2023-02-02T08:45:14;100778.84;;;4.68;100.00
44359;BME280;30077;52.474;13.326;2023-02-02T08:50:15;100782.19;;;4.79;100.00
44359;BME280;30077;52.474;13.326;2023-02-02T08:55:15;100781.94;;;4.92;100.00
44359;BME280;30077;52.474;13.326;2023-02-02T09:00:16;100787.16;;;4.95;100.00
44359;BME280;30077;52.474;13.326;2023-02-02T09:05:16;100795.75;;;5.06;100.00
44359;BME280;30077;52.474;13.326;2023-02-02T09:10:16;100800.78;;;5.18;100.00
44359;BME280;30077;52.474;13.326;2023-02-02T09:15:16;100806.19;;;5.54;100.00
44359;BME280;30077;52.474;13.326;2023-02-02T09:20:16;100815.59;;;5.67;100.00
44359;BME280;30077;52.474;13.326;2023-02-02T09:25:17;100809.19;;;5.37;100.00
44359;BME280;30077;52.474;13.326;2023-02-02T09:30:17;100838.16;;;5.43;100.00
44359;BME280;30077;52.474;13.326;2023-02-02T09:35:18;100836.56;;;5.76;100.00
44359;BME280;30077;52.474;13.326;2023-02-02T09:40:18;100856.06;;;5.74;100.00
44359;BME280;30077;52.474;13.326;2023-02-02T09:50:34;100864.50;;;5.90;100.00
44359;BME280;30077;52.474;13.326;2023-02-02T09:55:56;100871.38;;;6.00;97.37
44359;BME280;30077;52.474;13.326;2023-02-02T10:01:17;100873.28;;;5.92;96.39
44359;BME280;30077;52.474;13.326;2023-02-02T10:11:41;100881.97;;;6.00;96.14
44359;BME280;30077;52.474;13.326;2023-02-02T10:16:43;100879.09;;;6.11;94.39
44359;BME280;30077;52.474;13.326;2023-02-02T10:26:45;100891.97;;;5.86;92.36
44359;BME280;30077;52.474;13.326;2023-02-02T10:32:10;100897.63;;;5.69;90.13
44359;BME280;30077;52.474;13.326;2023-02-02T10:37:25;100901.47;;;5.54;90.33
44359;BME280;30077;52.474;13.326;2023-02-02T10:42:34;100917.88;;;5.71;86.71
44359;BME280;30077;52.474;13.326;2023-02-02T10:47:40;100913.59;;;6.06;87.22
44359;BME280;30077;52.474;13.326;2023-02-02T10:52:42;100917.28;;;6.38;85.62
44359;BME280;30077;52.474;13.326;2023-02-02T10:57:49;100923.56;;;6.34;84.93
44359;BME280;30077;52.474;13.326;2023-02-02T11:02:51;100928.50;;;6.49;83.04
44359;BME280;30077;52.474;13.326;2023-02-02T11:07:53;100932.06;;;6.48;80.74
44359;BME280;30077;52.474;13.326;2023-02-02T11:12:53;100947.25;;;6.41;80.94
44359;BME280;30077;52.474;13.326;2023-02-02T11:17:57;100948.47;;;6.26;80.55
44359;BME280;30077;52.474;13.326;2023-02-02T11:23:15;100951.59;;;6.44;79.70
44359;BME280;30077;52.474;13.326;2023-02-02T11:28:19;100961.09;;;6.15;80.78
44359;BME280;30077;52.474;13.326;2023-02-02T11:33:33;100954.19;;;6.08;82.22
44359;BME280;30077;52.474;13.326;2023-02-02T11:38:33;100958.31;;;6.21;82.63
44359;BME280;30077;52.474;13.326;2023-02-02T11:43:36;100973.69;;;6.04;82.64
44359;BME280;30077;52.474;13.326;2023-02-02T11:48:40;100987.28;;;6.27;83.03
44359;BME280;30077;52.474;13.326;2023-02-02T11:53:46;100990.91;;;6.25;82.14
44359;BME280;30077;52.474;13.326;2023-02-02T11:58:51;100985.91;;;6.11;82.24
44359;BME280;30077;52.474;13.326;2023-02-02T12:03:55;100977.38;;;5.97;84.81
44359;BME280;30077;52.474;13.326;2023-02-02T12:08:57;100985.22;;;6.42;84.18
44359;BME280;30077;52.474;13.326;2023-02-02T12:14:01;100998.69;;;6.33;83.99
44359;BME280;30077;52.474;13.326;2023-02-02T12:29:22;101049.31;;;4.04;100.00
44359;BME280;30077;52.474;13.326;2023-02-02T12:44:58;101057.56;;;3.70;100.00
44359;BME280;30077;52.474;13.326;2023-02-02T12:55:13;101054.59;;;4.04;100.00
44359;BME280;30077;52.474;13.326;2023-02-02T13:00:20;101051.91;;;4.05;100.00
44359;BME280;30077;52.474;13.326;2023-02-02T13:10:33;101058.88;;;4.13;100.00
44359;BME280;30077;52.474;13.326;2023-02-02T13:15:36;101068.38;;;4.24;100.00
44359;BME280;30077;52.474;13.326;2023-02-02T13:20:41;101084.06;;;4.40;100.00
44359;BME280;30077;52.474;13.326;2023-02-02T13:25:52;101096.22;;;4.50;100.00
44359;BME280;30077;52.474;13.326;2023-02-02T13:30:56;101101.53;;;4.50;100.00
44359;BME280;30077;52.474;13.326;2023-02-02T13:35:59;101107.59;;;4.58;100.00
44359;BME280;30077;52.474;13.326;2023-02-02T13:41:01;101119.81;;;4.67;100.00
44359;BME280;30077;52.474;13.326;2023-02-02T13:46:20;101130.28;;;4.76;100.00
44359;BME280;30077;52.474;13.326;2023-02-02T13:56:57;101145.78;;;4.97;97.68
44359;BME280;30077;52.474;13.326;2023-02-02T14:02:01;101159.00;;;4.99;92.01
44359;BME280;30077;52.474;13.326;2023-02-02T14:07:03;101173.03;;;5.04;92.48
44359;BME280;30077;52.474;13.326;2023-02-02T14:12:05;101174.72;;;5.08;92.83
44359;BME280;30077;52.474;13.326;2023-02-02T14:17:07;101200.13;;;5.21;90.74
44359;BME280;30077;52.474;13.326;2023-02-02T14:22:42;101194.06;;;5.13;89.53
44359;BME280;30077;52.474;13.326;2023-02-02T14:27:52;101203.13;;;5.57;92.70
44359;BME280;30077;52.474;13.326;2023-02-02T14:33:11;101222.31;;;5.70;90.19
44359;BME280;30077;52.474;13.326;2023-02-02T14:38:17;101242.56;;;5.14;86.79
44359;BME280;30077;52.474;13.326;2023-02-02T14:48:43;101269.41;;;4.81;88.60
44359;BME280;30077;52.474;13.326;2023-02-02T14:53:49;101270.38;;;4.71;88.36
44359;BME280;30077;52.474;13.326;2023-02-02T14:58:56;101280.13;;;4.69;88.13
44359;BME280;30077;52.474;13.326;2023-02-02T15:14:18;101311.94;;;4.57;83.42
44359;BME280;30077;52.474;13.326;2023-02-02T15:19:24;101314.69;;;4.48;81.90
44359;BME280;30077;52.474;13.326;2023-02-02T15:24:27;101331.47;;;4.39;81.25
44359;BME280;30077;52.474;13.326;2023-02-02T15:29:34;101341.28;;;4.29;81.04
44359;BME280;30077;52.474;13.326;2023-02-02T15:34:42;101359.00;;;4.15;82.04
44359;BME280;30077;52.474;13.326;2023-02-02T15:39:45;101358.16;;;4.08;81.91
44359;BME280;30077;52.474;13.326;2023-02-02T15:44:47;101376.72;;;3.95;82.79
44359;BME280;30077;52.474;13.326;2023-02-02T15:49:48;101393.50;;;3.84;83.40
44359;BME280;30077;52.474;13.326;2023-02-02T15:54:50;101396.22;;;3.75;84.47
44359;BME280;30077;52.474;13.326;2023-02-02T15:59:50;101401.53;;;3.66;85.24
44359;BME280;30077;52.474;13.326;2023-02-02T16:04:51;101421.78;;;3.58;84.93
44359;BME280;30077;52.474;13.326;2023-02-02T16:09:51;101430.63;;;3.52;83.91
44359;BME280;30077;52.474;13.326;2023-02-02T16:14:52;101444.72;;;3.44;85.18
44359;BME280;30077;52.474;13.326;2023-02-02T16:20:01;101457.91;;;3.41;85.59
44359;BME280;30077;52.474;13.326;2023-02-02T16:25:05;101467.56;;;3.40;85.50
44359;BME280;30077;52.474;13.326;2023-02-02T16:30:07;101472.03;;;3.27;86.54
44359;BME280;30077;52.474;13.326;2023-02-02T16:40:27;101505.44;;;3.05;87.90
44359;BME280;30077;52.474;13.326;2023-02-02T16:45:32;101515.09;;;3.00;88.75
44359;BME280;30077;52.474;13.326;2023-02-02T16:50:33;101521.25;;;2.88;89.84
44359;BME280;30077;52.474;13.326;2023-02-02T16:55:33;101523.91;;;2.87;90.39
44359;BME280;30077;52.474;13.326;2023-02-02T17:00:34;101534.44;;;2.92;89.92
44359;BME280;30077;52.474;13.326;2023-02-02T17:05:46;101540.59;;;2.87;90.97
44359;BME280;30077;52.474;13.326;2023-02-02T17:10:48;101551.97;;;2.76;92.85
44359;BME280;30077;52.474;13.326;2023-02-02T17:15:59;101560.75;;;2.69;92.69
44359;BME280;30077;52.474;13.326;2023-02-02T17:20:59;101560.78;;;2.65;92.72
44359;BME280;30077;52.474;13.326;2023-02-02T17:26:06;101572.19;;;2.63;92.87
44359;BME280;30077;52.474;13.326;2023-02-02T17:31:14;101569.53;;;2.57;93.71
44359;BME280;30077;52.474;13.326;2023-02-02T17:36:14;101577.41;;;2.48;95.29
44359;BME280;30077;52.474;13.326;2023-02-02T17:41:14;101581.78;;;2.41;96.70
44359;BME280;30077;52.474;13.326;2023-02-02T17:46:15;101591.41;;;2.34;97.20
44359;BME280;30077;52.474;13.326;2023-02-02T17:51:15;101602.81;;;2.30;97.95
44359;BME280;30077;52.474;13.326;2023-02-02T17:56:16;101607.19;;;2.30;97.59
44359;BME280;30077;52.474;13.326;2023-02-02T18:01:16;101610.69;;;2.30;98.77
44359;BME280;30077;52.474;13.326;2023-02-02T18:06:16;101605.41;;;2.27;99.67
44359;BME280;30077;52.474;13.326;2023-02-02T18:11:16;101601.00;;;2.25;100.00
44359;BME280;30077;52.474;13.326;2023-02-02T18:16:17;101605.41;;;2.18;100.00
44359;BME280;30077;52.474;13.326;2023-02-02T18:21:18;101604.50;;;2.17;100.00
44359;BME280;30077;52.474;13.326;2023-02-02T18:26:21;101617.72;;;2.25;100.00
44359;BME280;30077;52.474;13.326;2023-02-02T18:31:21;101614.19;;;2.23;99.36
44359;BME280;30077;52.474;13.326;2023-02-02T18:36:22;101622.94;;;2.16;99.10
44359;BME280;30077;52.474;13.326;2023-02-02T18:41:23;101617.59;;;2.07;99.87
44359;BME280;30077;52.474;13.326;2023-02-02T18:46:24;101606.13;;;1.96;99.03
44359;BME280;30077;52.474;13.326;2023-02-02T18:51:25;101609.66;;;1.95;99.37
44359;BME280;30077;52.474;13.326;2023-02-02T18:56:26;101614.94;;;1.96;99.10
44359;BME280;30077;52.474;13.326;2023-02-02T19:01:26;101601.72;;;1.88;100.00
44359;BME280;30077;52.474;13.326;2023-02-02T19:06:27;101607.81;;;1.80;100.00
44359;BME280;30077;52.474;13.326;2023-02-02T19:11:47;101613.00;;;1.71;100.00
44359;BME280;30077;52.474;13.326;2023-02-02T19:16:47;101610.34;;;1.60;100.00
44359;BME280;30077;52.474;13.326;2023-02-02T19:21:48;101619.03;;;1.56;100.00
44359;BME280;30077;52.474;13.326;2023-02-02T19:26:48;101621.66;;;1.50;100.00
44359;BME280;30077;52.474;13.326;2023-02-02T19:31:55;101630.38;;;1.49;100.00
44359;BME280;30077;52.474;13.326;2023-02-02T19:36:57;101636.56;;;1.49;100.00
44359;BME280;30077;52.474;13.326;2023-02-02T19:41:58;101629.56;;;1.53;100.00
44359;BME280;30077;52.474;13.326;2023-02-02T19:46:59;101641.00;;;1.58;100.00
44359;BME280;30077;52.474;13.326;2023-02-02T19:52:00;101635.78;;;1.64;100.00
44359;BME280;30077;52.474;13.326;2023-02-02T20:07:14;101646.34;;;1.73;99.35
44359;BME280;30077;52.474;13.326;2023-02-02T20:12:20;101644.63;;;1.75;98.62
44359;BME280;30077;52.474;13.326;2023-02-02T20:17:27;101649.94;;;1.83;98.71
44359;BME280;30077;52.474;13.326;2023-02-02T20:22:30;101652.63;;;1.90;98.64
44359;BME280;30077;52.474;13.326;2023-02-02T20:27:32;101643.88;;;1.95;99.04
44359;BME280;30077;52.474;13.326;2023-02-02T20:32:36;101636.84;;;1.93;98.62
44359;BME280;30077;52.474;13.326;2023-02-02T20:37:44;101645.63;;;1.94;100.00
44359;BME280;30077;52.474;13.326;2023-02-02T20:42:45;101628.06;;;1.95;100.00
44359;BME280;30077;52.474;13.326;2023-02-02T20:47:45;101634.25;;;1.97;100.00
44359;BME280;30077;52.474;13.326;2023-02-02T20:52:46;101617.56;;;1.95;100.00
44359;BME280;30077;52.474;13.326;2023-02-02T20:57:46;101621.94;;;1.92;100.00
44359;BME280;30077;52.474;13.326;2023-02-02T21:02:46;101616.66;;;1.89;100.00
44359;BME280;30077;52.474;13.326;2023-02-02T21:07:47;101612.25;;;1.88;100.00
44359;BME280;30077;52.474;13.326;2023-02-02T21:12:53;101608.72;;;1.85;100.00
44359;BME280;30077;52.474;13.326;2023-02-02T21:17:53;101605.19;;;1.78;100.00
44359;BME280;30077;52.474;13.326;2023-02-02T21:22:53;101606.03;;;1.76;100.00
44359;BME280;30077;52.474;13.326;2023-02-02T21:27:55;101595.50;;;1.73;100.00
44359;BME280;30077;52.474;13.326;2023-02-02T21:32:57;101598.13;;;1.74;100.00
44359;BME280;30077;52.474;13.326;2023-02-02T21:37:57;101591.09;;;1.73;100.00
44359;BME280;30077;52.474;13.326;2023-02-02T21:43:04;101585.84;;;1.73;100.00
44359;BME280;30077;52.474;13.326;2023-02-02T21:48:25;101583.19;;;1.70;100.00
44359;BME280;30077;52.474;13.326;2023-02-02T21:53:26;101574.41;;;1.66;100.00
44359;BME280;30077;52.474;13.326;2023-02-02T21:58:36;101590.22;;;1.69;100.00
44359;BME280;30077;52.474;13.326;2023-02-02T22:03:41;101564.81;;;1.76;100.00
44359;BME280;30077;52.474;13.326;2023-02-02T22:08:45;101566.59;;;1.80;100.00
44359;BME280;30077;52.474;13.326;2023-02-02T22:13:46;101566.63;;;1.83;100.00
44359;BME280;30077;52.474;13.326;2023-02-02T22:18:47;101561.41;;;1.89;100.00
44359;BME280;30077;52.474;13.326;2023-02-02T22:23:47;101552.63;;;1.92;100.00
44359;BME280;30077;52.474;13.326;2023-02-02T22:28:47;101561.41;;;1.96;100.00
44359;BME280;30077;52.474;13.326;2023-02-02T22:33:47;101552.66;;;1.98;100.00
44359;BME280;30077;52.474;13.326;2023-02-02T22:38:48;101563.19;;;2.03;100.00
44359;BME280;30077;52.474;13.326;2023-02-02T22:43:48;101557.94;;;2.03;100.00
44359;BME280;30077;52.474;13.326;2023-02-02T22:48:48;101566.75;;;2.08;100.00
44359;BME280;30077;52.474;13.326;2023-02-02T22:53:48;101558.84;;;2.09;100.00
44359;BME280;30077;52.474;13.326;2023-02-02T22:58:48;101558.00;;;2.15;100.00
44359;BME280;30077;52.474;13.326;2023-02-02T23:03:50;101557.13;;;2.16;100.00
44359;BME280;30077;52.474;13.326;2023-02-02T23:08:50;101546.56;;;2.17;100.00
44359;BME280;30077;52.474;13.326;2023-02-02T23:13:50;101549.22;;;2.21;100.00
44359;BME280;30077;52.474;13.326;2023-02-02T23:18:50;101548.38;;;2.23;100.00
44359;BME280;30077;52.474;13.326;2023-02-02T23:23:50;101543.13;;;2.29;100.00
44359;BME280;30077;52.474;13.326;2023-02-02T23:28:52;101535.22;;;2.29;100.00
44359;BME280;30077;52.474;13.326;2023-02-02T23:33:52;101533.47;;;2.31;100.00
44359;BME280;30077;52.474;13.326;2023-02-02T23:38:52;101514.16;;;2.35;100.00
44359;BME280;30077;52.474;13.326;2023-02-02T23:43:52;101515.03;;;2.39;100.00
44359;BME280;30077;52.474;13.326;2023-02-02T23:48:53;101496.63;;;2.39;100.00
44359;BME280;30077;52.474;13.326;2023-02-02T23:53:53;101492.25;;;2.44;100.00
44359;BME280;30077;52.474;13.326;2023-02-02T23:58:54;101493.13;;;2.46;100.00
